sensor_id;sensor_type;location;lat;lon;timestamp;P1;durP1;ratioP1;P2;durP2;ratioP2
19492;SDS011;9887;54.366;10.958;2022-10-16T00:00:51;8.80;;;5.00;;
19492;SDS011;9887;54.366;10.958;2022-10-16T00:03:18;9.10;;;5.03;;
19492;SDS011;9887;54.366;10.958;2022-10-16T00:05:50;8.70;;;5.28;;
19492;SDS011;9887;54.366;10.958;2022-10-16T00:08:19;10.93;;;5.13;;
19492;SDS011;9887;54.366;10.958;2022-10-16T00:10:47;10.77;;;4.82;;
19492;SDS011;9887;54.366;10.958;2022-10-16T00:13:15;6.50;;;4.53;;
19492;SDS011;9887;54.366;10.958;2022-10-16T00:15:43;10.82;;;4.40;;
19492;SDS011;9887;54.366;10.958;2022-10-16T00:18:11;9.52;;;4.85;;
19492;SDS011;9887;54.366;10.958;2022-10-16T00:20:40;8.80;;;4.50;;
19492;SDS011;9887;54.366;10.958;2022-10-16T00:23:09;10.48;;;4.15;;
19492;SDS011;9887;54.366;10.958;2022-10-16T00:25:37;7.35;;;4.35;;
19492;SDS011;9887;54.366;10.958;2022-10-16T00:28:05;6.68;;;4.00;;
19492;SDS011;9887;54.366;10.958;2022-10-16T00:30:33;9.80;;;4.40;;
19492;SDS011;9887;54.366;10.958;2022-10-16T00:33:01;9.20;;;4.10;;
19492;SDS011;9887;54.366;10.958;2022-10-16T00:35:30;8.18;;;4.35;;
19492;SDS011;9887;54.366;10.958;2022-10-16T00:37:58;8.35;;;4.05;;
19492;SDS011;9887;54.366;10.958;2022-10-16T00:40:27;8.68;;;4.55;;
19492;SDS011;9887;54.366;10.958;2022-10-16T00:42:55;16.60;;;4.65;;
19492;SDS011;9887;54.366;10.958;2022-10-16T00:45:23;9.73;;;4.93;;
19492;SDS011;9887;54.366;10.958;2022-10-16T00:47:51;10.10;;;4.97;;
19492;SDS011;9887;54.366;10.958;2022-10-16T00:50:22;11.30;;;5.03;;
19492;SDS011;9887;54.366;10.958;2022-10-16T00:52:54;8.70;;;5.13;;
19492;SDS011;9887;54.366;10.958;2022-10-16T00:55:23;13.80;;;5.05;;
19492;SDS011;9887;54.366;10.958;2022-10-16T00:57:53;8.18;;;4.78;;
19492;SDS011;9887;54.366;10.958;2022-10-16T01:00:22;11.00;;;4.97;;
19492;SDS011;9887;54.366;10.958;2022-10-16T01:02:53;9.73;;;5.15;;
19492;SDS011;9887;54.366;10.958;2022-10-16T01:05:22;11.65;;;5.28;;
19492;SDS011;9887;54.366;10.958;2022-10-16T01:07:53;11.02;;;5.20;;
19492;SDS011;9887;54.366;10.958;2022-10-16T01:10:27;11.15;;;5.45;;
19492;SDS011;9887;54.366;10.958;2022-10-16T01:13:03;7.72;;;5.00;;
19492;SDS011;9887;54.366;10.958;2022-10-16T01:15:37;8.23;;;4.55;;
19492;SDS011;9887;54.366;10.958;2022-10-16T01:18:11;8.70;;;4.95;;
19492;SDS011;9887;54.366;10.958;2022-10-16T01:20:44;8.68;;;4.28;;
19492;SDS011;9887;54.366;10.958;2022-10-16T01:23:27;8.35;;;5.32;;
19492;SDS011;9887;54.366;10.958;2022-10-16T01:26:10;8.82;;;4.10;;
19492;SDS011;9887;54.366;10.958;2022-10-16T01:28:50;8.65;;;4.63;;
19492;SDS011;9887;54.366;10.958;2022-10-16T01:31:22;8.80;;;4.72;;
19492;SDS011;9887;54.366;10.958;2022-10-16T01:33:56;8.82;;;4.45;;
19492;SDS011;9887;54.366;10.958;2022-10-16T01:36:28;7.65;;;4.40;;
19492;SDS011;9887;54.366;10.958;2022-10-16T01:39:02;9.55;;;5.47;;
19492;SDS011;9887;54.366;10.958;2022-10-16T01:41:31;8.15;;;4.18;;
19492;SDS011;9887;54.366;10.958;2022-10-16T01:44:04;9.93;;;4.70;;
19492;SDS011;9887;54.366;10.958;2022-10-16T01:46:35;8.00;;;4.53;;
19492;SDS011;9887;54.366;10.958;2022-10-16T01:49:05;8.30;;;4.10;;
19492;SDS011;9887;54.366;10.958;2022-10-16T01:51:33;8.18;;;4.32;;
19492;SDS011;9887;54.366;10.958;2022-10-16T01:54:04;9.02;;;4.50;;
19492;SDS011;9887;54.366;10.958;2022-10-16T01:56:35;10.25;;;4.35;;
19492;SDS011;9887;54.366;10.958;2022-10-16T01:59:05;11.77;;;4.47;;
19492;SDS011;9887;54.366;10.958;2022-10-16T02:01:37;9.63;;;4.57;;
19492;SDS011;9887;54.366;10.958;2022-10-16T02:04:09;8.75;;;4.15;;
19492;SDS011;9887;54.366;10.958;2022-10-16T02:06:42;13.77;;;5.20;;
19492;SDS011;9887;54.366;10.958;2022-10-16T02:09:10;9.30;;;5.18;;
19492;SDS011;9887;54.366;10.958;2022-10-16T02:11:38;10.15;;;4.30;;
19492;SDS011;9887;54.366;10.958;2022-10-16T02:14:07;11.88;;;4.82;;
19492;SDS011;9887;54.366;10.958;2022-10-16T02:16:36;13.98;;;5.38;;
19492;SDS011;9887;54.366;10.958;2022-10-16T02:19:05;10.02;;;5.13;;
19492;SDS011;9887;54.366;10.958;2022-10-16T02:21:35;10.20;;;4.85;;
19492;SDS011;9887;54.366;10.958;2022-10-16T02:24:09;9.65;;;5.07;;
19492;SDS011;9887;54.366;10.958;2022-10-16T02:26:50;16.17;;;5.45;;
19492;SDS011;9887;54.366;10.958;2022-10-16T02:29:26;10.40;;;5.18;;
19492;SDS011;9887;54.366;10.958;2022-10-16T02:31:55;8.55;;;4.93;;
19492;SDS011;9887;54.366;10.958;2022-10-16T02:34:26;9.80;;;4.28;;
19492;SDS011;9887;54.366;10.958;2022-10-16T02:36:55;11.38;;;4.88;;
19492;SDS011;9887;54.366;10.958;2022-10-16T02:39:25;8.65;;;5.07;;
19492;SDS011;9887;54.366;10.958;2022-10-16T02:41:54;10.23;;;4.95;;
19492;SDS011;9887;54.366;10.958;2022-10-16T02:44:22;8.65;;;4.57;;
19492;SDS011;9887;54.366;10.958;2022-10-16T02:46:51;11.60;;;4.80;;
19492;SDS011;9887;54.366;10.958;2022-10-16T02:49:19;10.55;;;4.82;;
19492;SDS011;9887;54.366;10.958;2022-10-16T02:51:47;9.70;;;4.60;;
19492;SDS011;9887;54.366;10.958;2022-10-16T02:54:14;10.13;;;4.50;;
19492;SDS011;9887;54.366;10.958;2022-10-16T02:56:42;11.60;;;4.78;;
19492;SDS011;9887;54.366;10.958;2022-10-16T02:59:10;8.75;;;4.40;;
19492;SDS011;9887;54.366;10.958;2022-10-16T03:01:38;10.45;;;4.72;;
19492;SDS011;9887;54.366;10.958;2022-10-16T03:04:07;9.82;;;4.72;;
19492;SDS011;9887;54.366;10.958;2022-10-16T03:06:35;7.45;;;4.00;;
19492;SDS011;9887;54.366;10.958;2022-10-16T03:09:03;9.48;;;4.22;;
19492;SDS011;9887;54.366;10.958;2022-10-16T03:11:32;9.15;;;4.00;;
19492;SDS011;9887;54.366;10.958;2022-10-16T03:13:59;10.20;;;4.28;;
19492;SDS011;9887;54.366;10.958;2022-10-16T03:16:27;8.25;;;3.90;;
19492;SDS011;9887;54.366;10.958;2022-10-16T03:18:55;6.88;;;3.95;;
19492;SDS011;9887;54.366;10.958;2022-10-16T03:21:24;8.63;;;4.03;;
19492;SDS011;9887;54.366;10.958;2022-10-16T03:23:52;9.80;;;3.70;;
19492;SDS011;9887;54.366;10.958;2022-10-16T03:26:20;5.90;;;3.28;;
19492;SDS011;9887;54.366;10.958;2022-10-16T03:28:48;9.65;;;3.50;;
19492;SDS011;9887;54.366;10.958;2022-10-16T03:31:15;9.27;;;3.67;;
19492;SDS011;9887;54.366;10.958;2022-10-16T03:33:43;6.38;;;3.53;;
19492;SDS011;9887;54.366;10.958;2022-10-16T03:36:11;12.85;;;3.80;;
19492;SDS011;9887;54.366;10.958;2022-10-16T03:38:40;7.70;;;3.05;;
19492;SDS011;9887;54.366;10.958;2022-10-16T03:41:08;10.05;;;3.60;;
19492;SDS011;9887;54.366;10.958;2022-10-16T03:43:36;10.75;;;3.78;;
19492;SDS011;9887;54.366;10.958;2022-10-16T03:46:04;7.97;;;3.35;;
19492;SDS011;9887;54.366;10.958;2022-10-16T03:48:32;7.03;;;2.85;;
19492;SDS011;9887;54.366;10.958;2022-10-16T03:51:00;7.43;;;2.80;;
19492;SDS011;9887;54.366;10.958;2022-10-16T03:53:27;5.70;;;2.80;;
19492;SDS011;9887;54.366;10.958;2022-10-16T03:55:57;7.32;;;3.08;;
19492;SDS011;9887;54.366;10.958;2022-10-16T03:58:24;8.15;;;3.13;;
19492;SDS011;9887;54.366;10.958;2022-10-16T04:00:52;9.27;;;3.35;;
19492;SDS011;9887;54.366;10.958;2022-10-16T04:03:20;8.43;;;3.17;;
19492;SDS011;9887;54.366;10.958;2022-10-16T04:05:49;8.80;;;3.17;;
19492;SDS011;9887;54.366;10.958;2022-10-16T04:08:17;6.25;;;2.80;;
19492;SDS011;9887;54.366;10.958;2022-10-16T04:10:45;5.30;;;2.80;;
19492;SDS011;9887;54.366;10.958;2022-10-16T04:13:14;7.88;;;2.88;;
19492;SDS011;9887;54.366;10.958;2022-10-16T04:15:44;7.97;;;3.13;;
19492;SDS011;9887;54.366;10.958;2022-10-16T04:18:12;9.68;;;3.15;;
19492;SDS011;9887;54.366;10.958;2022-10-16T04:20:40;5.93;;;3.15;;
19492;SDS011;9887;54.366;10.958;2022-10-16T04:23:08;12.40;;;3.35;;
19492;SDS011;9887;54.366;10.958;2022-10-16T04:25:36;9.07;;;3.05;;
19492;SDS011;9887;54.366;10.958;2022-10-16T04:28:03;5.95;;;3.30;;
19492;SDS011;9887;54.366;10.958;2022-10-16T04:30:33;5.53;;;3.00;;
19492;SDS011;9887;54.366;10.958;2022-10-16T04:33:00;6.60;;;3.10;;
19492;SDS011;9887;54.366;10.958;2022-10-16T04:35:28;5.88;;;2.83;;
19492;SDS011;9887;54.366;10.958;2022-10-16T04:37:56;5.90;;;2.95;;
19492;SDS011;9887;54.366;10.958;2022-10-16T04:40:24;8.65;;;2.90;;
19492;SDS011;9887;54.366;10.958;2022-10-16T04:42:52;5.15;;;2.95;;
19492;SDS011;9887;54.366;10.958;2022-10-16T04:45:20;5.07;;;3.15;;
19492;SDS011;9887;54.366;10.958;2022-10-16T04:47:49;11.73;;;3.22;;
19492;SDS011;9887;54.366;10.958;2022-10-16T04:50:17;6.15;;;3.03;;
19492;SDS011;9887;54.366;10.958;2022-10-16T04:53:00;5.15;;;2.92;;
19492;SDS011;9887;54.366;10.958;2022-10-16T04:55:28;6.55;;;2.95;;
19492;SDS011;9887;54.366;10.958;2022-10-16T04:57:56;8.02;;;2.47;;
19492;SDS011;9887;54.366;10.958;2022-10-16T05:00:23;7.13;;;2.90;;
19492;SDS011;9887;54.366;10.958;2022-10-16T05:02:53;6.80;;;3.08;;
19492;SDS011;9887;54.366;10.958;2022-10-16T05:05:21;6.45;;;2.60;;
19492;SDS011;9887;54.366;10.958;2022-10-16T05:07:49;5.38;;;2.53;;
19492;SDS011;9887;54.366;10.958;2022-10-16T05:10:17;7.68;;;2.30;;
19492;SDS011;9887;54.366;10.958;2022-10-16T05:12:45;5.97;;;2.42;;
19492;SDS011;9887;54.366;10.958;2022-10-16T05:15:13;5.75;;;2.75;;
19492;SDS011;9887;54.366;10.958;2022-10-16T05:17:41;5.70;;;2.38;;
19492;SDS011;9887;54.366;10.958;2022-10-16T05:20:11;6.82;;;2.60;;
19492;SDS011;9887;54.366;10.958;2022-10-16T05:22:39;6.03;;;2.65;;
19492;SDS011;9887;54.366;10.958;2022-10-16T05:25:07;5.15;;;2.38;;
19492;SDS011;9887;54.366;10.958;2022-10-16T05:27:35;4.82;;;2.55;;
19492;SDS011;9887;54.366;10.958;2022-10-16T05:30:03;5.70;;;2.50;;
19492;SDS011;9887;54.366;10.958;2022-10-16T05:32:36;4.45;;;2.40;;
19492;SDS011;9887;54.366;10.958;2022-10-16T05:35:04;8.75;;;2.47;;
19492;SDS011;9887;54.366;10.958;2022-10-16T05:37:39;5.03;;;2.47;;
19492;SDS011;9887;54.366;10.958;2022-10-16T05:40:07;5.55;;;2.47;;
19492;SDS011;9887;54.366;10.958;2022-10-16T05:42:36;5.40;;;2.13;;
19492;SDS011;9887;54.366;10.958;2022-10-16T05:45:04;6.82;;;2.30;;
19492;SDS011;9887;54.366;10.958;2022-10-16T05:47:33;4.40;;;1.92;;
19492;SDS011;9887;54.366;10.958;2022-10-16T05:50:01;6.72;;;2.28;;
19492;SDS011;9887;54.366;10.958;2022-10-16T05:52:30;5.97;;;2.10;;
19492;SDS011;9887;54.366;10.958;2022-10-16T05:54:59;5.38;;;2.05;;
19492;SDS011;9887;54.366;10.958;2022-10-16T05:57:27;4.28;;;1.95;;
19492;SDS011;9887;54.366;10.958;2022-10-16T05:59:55;5.80;;;2.35;;
19492;SDS011;9887;54.366;10.958;2022-10-16T06:02:23;3.67;;;1.98;;
19492;SDS011;9887;54.366;10.958;2022-10-16T06:04:51;7.28;;;2.72;;
19492;SDS011;9887;54.366;10.958;2022-10-16T06:07:21;8.20;;;1.85;;
19492;SDS011;9887;54.366;10.958;2022-10-16T06:09:50;5.03;;;1.95;;
19492;SDS011;9887;54.366;10.958;2022-10-16T06:12:19;7.43;;;1.85;;
19492;SDS011;9887;54.366;10.958;2022-10-16T06:14:47;5.60;;;2.00;;
19492;SDS011;9887;54.366;10.958;2022-10-16T06:17:15;5.85;;;2.10;;
19492;SDS011;9887;54.366;10.958;2022-10-16T06:19:43;5.90;;;2.10;;
19492;SDS011;9887;54.366;10.958;2022-10-16T06:22:11;3.90;;;2.10;;
19492;SDS011;9887;54.366;10.958;2022-10-16T06:24:39;7.25;;;2.20;;
19492;SDS011;9887;54.366;10.958;2022-10-16T06:27:07;6.90;;;1.90;;
19492;SDS011;9887;54.366;10.958;2022-10-16T06:29:36;6.90;;;2.15;;
19492;SDS011;9887;54.366;10.958;2022-10-16T06:32:04;6.35;;;1.92;;
19492;SDS011;9887;54.366;10.958;2022-10-16T06:34:32;7.38;;;1.77;;
19492;SDS011;9887;54.366;10.958;2022-10-16T06:37:00;4.57;;;1.95;;
19492;SDS011;9887;54.366;10.958;2022-10-16T06:39:28;6.00;;;2.00;;
19492;SDS011;9887;54.366;10.958;2022-10-16T06:41:56;5.55;;;1.70;;
19492;SDS011;9887;54.366;10.958;2022-10-16T06:44:34;5.18;;;1.77;;
19492;SDS011;9887;54.366;10.958;2022-10-16T06:47:03;4.72;;;1.80;;
19492;SDS011;9887;54.366;10.958;2022-10-16T06:49:32;4.68;;;2.08;;
19492;SDS011;9887;54.366;10.958;2022-10-16T06:52:00;4.32;;;1.75;;
19492;SDS011;9887;54.366;10.958;2022-10-16T06:54:28;5.72;;;1.90;;
19492;SDS011;9887;54.366;10.958;2022-10-16T06:57:07;5.93;;;1.90;;
19492;SDS011;9887;54.366;10.958;2022-10-16T06:59:36;3.65;;;1.55;;
19492;SDS011;9887;54.366;10.958;2022-10-16T07:02:04;5.85;;;1.67;;
19492;SDS011;9887;54.366;10.958;2022-10-16T07:04:33;5.22;;;1.50;;
19492;SDS011;9887;54.366;10.958;2022-10-16T07:07:02;3.17;;;1.77;;
19492;SDS011;9887;54.366;10.958;2022-10-16T07:09:34;6.35;;;1.67;;
19492;SDS011;9887;54.366;10.958;2022-10-16T07:12:02;6.53;;;1.95;;
19492;SDS011;9887;54.366;10.958;2022-10-16T07:14:30;6.22;;;1.40;;
19492;SDS011;9887;54.366;10.958;2022-10-16T07:16:59;4.07;;;1.45;;
19492;SDS011;9887;54.366;10.958;2022-10-16T07:19:27;5.90;;;1.75;;
19492;SDS011;9887;54.366;10.958;2022-10-16T07:21:59;6.57;;;1.77;;
19492;SDS011;9887;54.366;10.958;2022-10-16T07:24:27;4.40;;;1.33;;
19492;SDS011;9887;54.366;10.958;2022-10-16T07:26:55;3.10;;;1.60;;
19492;SDS011;9887;54.366;10.958;2022-10-16T07:29:23;3.90;;;1.50;;
19492;SDS011;9887;54.366;10.958;2022-10-16T07:31:50;5.90;;;1.48;;
19492;SDS011;9887;54.366;10.958;2022-10-16T07:34:20;5.38;;;1.23;;
19492;SDS011;9887;54.366;10.958;2022-10-16T07:36:48;4.80;;;1.67;;
19492;SDS011;9887;54.366;10.958;2022-10-16T07:39:17;3.67;;;1.77;;
19492;SDS011;9887;54.366;10.958;2022-10-16T07:41:45;3.97;;;1.40;;
19492;SDS011;9887;54.366;10.958;2022-10-16T07:44:12;4.07;;;1.67;;
19492;SDS011;9887;54.366;10.958;2022-10-16T07:46:40;5.75;;;1.55;;
19492;SDS011;9887;54.366;10.958;2022-10-16T07:49:08;3.60;;;1.30;;
19492;SDS011;9887;54.366;10.958;2022-10-16T07:51:37;4.18;;;1.58;;
19492;SDS011;9887;54.366;10.958;2022-10-16T07:54:05;4.30;;;1.70;;
19492;SDS011;9887;54.366;10.958;2022-10-16T07:56:35;5.80;;;1.85;;
19492;SDS011;9887;54.366;10.958;2022-10-16T07:59:08;4.40;;;1.33;;
19492;SDS011;9887;54.366;10.958;2022-10-16T08:01:36;6.90;;;1.70;;
19492;SDS011;9887;54.366;10.958;2022-10-16T08:04:04;4.20;;;1.63;;
19492;SDS011;9887;54.366;10.958;2022-10-16T08:06:35;3.90;;;1.58;;
19492;SDS011;9887;54.366;10.958;2022-10-16T08:09:05;3.65;;;1.38;;
19492;SDS011;9887;54.366;10.958;2022-10-16T08:11:33;5.28;;;1.52;;
19492;SDS011;9887;54.366;10.958;2022-10-16T08:14:01;5.63;;;1.70;;
19492;SDS011;9887;54.366;10.958;2022-10-16T08:16:29;2.83;;;1.60;;
19492;SDS011;9887;54.366;10.958;2022-10-16T08:18:56;4.28;;;1.70;;
19492;SDS011;9887;54.366;10.958;2022-10-16T08:21:24;4.00;;;1.60;;
19492;SDS011;9887;54.366;10.958;2022-10-16T08:23:53;4.45;;;1.55;;
19492;SDS011;9887;54.366;10.958;2022-10-16T08:26:25;3.22;;;1.40;;
19492;SDS011;9887;54.366;10.958;2022-10-16T08:28:53;5.53;;;1.70;;
19492;SDS011;9887;54.366;10.958;2022-10-16T08:31:22;5.45;;;1.48;;
19492;SDS011;9887;54.366;10.958;2022-10-16T08:33:50;5.60;;;1.48;;
19492;SDS011;9887;54.366;10.958;2022-10-16T08:36:18;4.68;;;1.40;;
19492;SDS011;9887;54.366;10.958;2022-10-16T08:38:47;5.70;;;1.50;;
19492;SDS011;9887;54.366;10.958;2022-10-16T08:41:21;7.30;;;1.60;;
19492;SDS011;9887;54.366;10.958;2022-10-16T08:44:03;3.72;;;1.40;;
19492;SDS011;9887;54.366;10.958;2022-10-16T08:46:56;3.30;;;1.60;;
19492;SDS011;9887;54.366;10.958;2022-10-16T08:49:36;4.03;;;1.30;;
19492;SDS011;9887;54.366;10.958;2022-10-16T08:52:07;9.27;;;2.08;;
19492;SDS011;9887;54.366;10.958;2022-10-16T08:54:41;4.78;;;1.50;;
19492;SDS011;9887;54.366;10.958;2022-10-16T08:57:14;4.93;;;1.45;;
19492;SDS011;9887;54.366;10.958;2022-10-16T08:59:49;4.60;;;1.38;;
19492;SDS011;9887;54.366;10.958;2022-10-16T09:02:23;8.05;;;1.38;;
19492;SDS011;9887;54.366;10.958;2022-10-16T09:04:58;4.72;;;1.48;;
19492;SDS011;9887;54.366;10.958;2022-10-16T09:07:46;3.50;;;1.40;;
19492;SDS011;9887;54.366;10.958;2022-10-16T09:10:22;5.97;;;1.30;;
19492;SDS011;9887;54.366;10.958;2022-10-16T09:12:59;3.97;;;1.30;;
19492;SDS011;9887;54.366;10.958;2022-10-16T09:15:39;6.45;;;1.33;;
19492;SDS011;9887;54.366;10.958;2022-10-16T09:18:15;3.28;;;1.38;;
19492;SDS011;9887;54.366;10.958;2022-10-16T09:20:56;2.65;;;1.10;;
19492;SDS011;9887;54.366;10.958;2022-10-16T09:23:29;3.55;;;1.35;;
19492;SDS011;9887;54.366;10.958;2022-10-16T09:25:58;2.72;;;1.17;;
19492;SDS011;9887;54.366;10.958;2022-10-16T09:28:27;3.58;;;1.35;;
19492;SDS011;9887;54.366;10.958;2022-10-16T09:30:55;5.40;;;1.90;;
19492;SDS011;9887;54.366;10.958;2022-10-16T09:33:25;4.40;;;1.30;;
19492;SDS011;9887;54.366;10.958;2022-10-16T09:35:56;3.40;;;1.40;;
19492;SDS011;9887;54.366;10.958;2022-10-16T09:38:26;4.65;;;1.33;;
19492;SDS011;9887;54.366;10.958;2022-10-16T09:40:55;2.08;;;1.15;;
19492;SDS011;9887;54.366;10.958;2022-10-16T09:43:32;4.20;;;1.50;;
19492;SDS011;9887;54.366;10.958;2022-10-16T09:46:07;3.97;;;1.30;;
19492;SDS011;9887;54.366;10.958;2022-10-16T09:48:37;6.35;;;2.10;;
19492;SDS011;9887;54.366;10.958;2022-10-16T09:51:16;3.95;;;1.85;;
19492;SDS011;9887;54.366;10.958;2022-10-16T09:53:47;5.13;;;1.10;;
19492;SDS011;9887;54.366;10.958;2022-10-16T09:56:21;4.15;;;1.20;;
19492;SDS011;9887;54.366;10.958;2022-10-16T09:58:51;4.63;;;1.10;;
19492;SDS011;9887;54.366;10.958;2022-10-16T10:01:20;3.28;;;1.20;;
19492;SDS011;9887;54.366;10.958;2022-10-16T10:03:50;7.15;;;1.40;;
19492;SDS011;9887;54.366;10.958;2022-10-16T10:06:25;4.50;;;1.20;;
19492;SDS011;9887;54.366;10.958;2022-10-16T10:08:58;3.67;;;1.10;;
19492;SDS011;9887;54.366;10.958;2022-10-16T10:14:23;7.40;;;1.42;;
19492;SDS011;9887;54.366;10.958;2022-10-16T10:17:02;5.03;;;1.00;;
19492;SDS011;9887;54.366;10.958;2022-10-16T10:19:40;3.42;;;1.25;;
19492;SDS011;9887;54.366;10.958;2022-10-16T10:22:19;4.03;;;1.17;;
19492;SDS011;9887;54.366;10.958;2022-10-16T10:24:54;6.47;;;1.13;;
19492;SDS011;9887;54.366;10.958;2022-10-16T10:27:24;6.25;;;1.10;;
19492;SDS011;9887;54.366;10.958;2022-10-16T10:30:01;10.38;;;1.50;;
19492;SDS011;9887;54.366;10.958;2022-10-16T10:32:37;6.53;;;1.30;;
19492;SDS011;9887;54.366;10.958;2022-10-16T10:35:14;4.70;;;1.23;;
19492;SDS011;9887;54.366;10.958;2022-10-16T10:37:51;4.07;;;1.20;;
19492;SDS011;9887;54.366;10.958;2022-10-16T10:40:34;8.15;;;1.20;;
19492;SDS011;9887;54.366;10.958;2022-10-16T10:43:13;4.20;;;1.13;;
19492;SDS011;9887;54.366;10.958;2022-10-16T10:45:51;6.28;;;1.35;;
19492;SDS011;9887;54.366;10.958;2022-10-16T10:48:25;3.13;;;1.50;;
19492;SDS011;9887;54.366;10.958;2022-10-16T10:51:16;4.32;;;1.20;;
19492;SDS011;9887;54.366;10.958;2022-10-16T10:53:51;6.88;;;2.10;;
19492;SDS011;9887;54.366;10.958;2022-10-16T10:56:34;4.60;;;1.27;;
19492;SDS011;9887;54.366;10.958;2022-10-16T10:59:19;4.70;;;1.30;;
19492;SDS011;9887;54.366;10.958;2022-10-16T11:02:11;2.95;;;1.15;;
19492;SDS011;9887;54.366;10.958;2022-10-16T11:07:36;4.88;;;1.20;;
19492;SDS011;9887;54.366;10.958;2022-10-16T11:10:09;4.70;;;1.50;;
19492;SDS011;9887;54.366;10.958;2022-10-16T11:12:42;5.05;;;1.00;;
19492;SDS011;9887;54.366;10.958;2022-10-16T11:15:15;5.13;;;1.25;;
19492;SDS011;9887;54.366;10.958;2022-10-16T11:17:50;6.60;;;1.50;;
19492;SDS011;9887;54.366;10.958;2022-10-16T11:20:22;7.68;;;1.20;;
19492;SDS011;9887;54.366;10.958;2022-10-16T11:22:54;3.30;;;0.93;;
19492;SDS011;9887;54.366;10.958;2022-10-16T11:25:26;7.40;;;1.05;;
19492;SDS011;9887;54.366;10.958;2022-10-16T11:27:56;4.63;;;0.90;;
19492;SDS011;9887;54.366;10.958;2022-10-16T11:30:39;6.15;;;1.38;;
19492;SDS011;9887;54.366;10.958;2022-10-16T11:33:20;5.28;;;1.10;;
19492;SDS011;9887;54.366;10.958;2022-10-16T11:35:55;4.10;;;0.90;;
19492;SDS011;9887;54.366;10.958;2022-10-16T11:38:30;9.10;;;1.52;;
19492;SDS011;9887;54.366;10.958;2022-10-16T11:41:03;2.00;;;0.80;;
19492;SDS011;9887;54.366;10.958;2022-10-16T11:43:37;4.18;;;1.10;;
19492;SDS011;9887;54.366;10.958;2022-10-16T11:46:10;7.13;;;1.00;;
19492;SDS011;9887;54.366;10.958;2022-10-16T11:48:47;6.05;;;1.25;;
19492;SDS011;9887;54.366;10.958;2022-10-16T11:51:19;4.82;;;0.95;;
19492;SDS011;9887;54.366;10.958;2022-10-16T11:53:58;4.90;;;1.20;;
19492;SDS011;9887;54.366;10.958;2022-10-16T11:56:31;6.78;;;0.90;;
19492;SDS011;9887;54.366;10.958;2022-10-16T11:59:04;5.57;;;0.93;;
19492;SDS011;9887;54.366;10.958;2022-10-16T12:01:37;8.70;;;1.27;;
19492;SDS011;9887;54.366;10.958;2022-10-16T12:04:16;6.20;;;0.90;;
19492;SDS011;9887;54.366;10.958;2022-10-16T12:06:50;3.92;;;0.90;;
19492;SDS011;9887;54.366;10.958;2022-10-16T12:09:24;4.25;;;1.08;;
19492;SDS011;9887;54.366;10.958;2022-10-16T12:11:55;7.65;;;1.45;;
19492;SDS011;9887;54.366;10.958;2022-10-16T12:14:34;8.25;;;1.52;;
19492;SDS011;9887;54.366;10.958;2022-10-16T12:17:26;8.27;;;1.48;;
19492;SDS011;9887;54.366;10.958;2022-10-16T12:20:19;3.83;;;0.90;;
19492;SDS011;9887;54.366;10.958;2022-10-16T12:22:59;5.70;;;1.33;;
19492;SDS011;9887;54.366;10.958;2022-10-16T12:25:29;8.23;;;1.35;;
19492;SDS011;9887;54.366;10.958;2022-10-16T12:28:03;4.30;;;1.10;;
19492;SDS011;9887;54.366;10.958;2022-10-16T12:30:33;6.70;;;2.10;;
19492;SDS011;9887;54.366;10.958;2022-10-16T12:33:03;5.25;;;1.05;;
19492;SDS011;9887;54.366;10.958;2022-10-16T12:35:35;4.70;;;1.10;;
19492;SDS011;9887;54.366;10.958;2022-10-16T12:38:15;5.90;;;1.10;;
19492;SDS011;9887;54.366;10.958;2022-10-16T12:40:46;6.93;;;1.40;;
19492;SDS011;9887;54.366;10.958;2022-10-16T12:43:35;4.95;;;1.02;;
19492;SDS011;9887;54.366;10.958;2022-10-16T12:46:20;6.10;;;1.10;;
19492;SDS011;9887;54.366;10.958;2022-10-16T12:48:50;3.70;;;0.93;;
19492;SDS011;9887;54.366;10.958;2022-10-16T12:51:35;7.43;;;1.00;;
19492;SDS011;9887;54.366;10.958;2022-10-16T12:54:04;6.35;;;1.02;;
19492;SDS011;9887;54.366;10.958;2022-10-16T12:56:41;5.80;;;0.95;;
19492;SDS011;9887;54.366;10.958;2022-10-16T12:59:18;7.93;;;1.02;;
19492;SDS011;9887;54.366;10.958;2022-10-16T13:01:58;4.10;;;1.20;;
19492;SDS011;9887;54.366;10.958;2022-10-16T13:04:46;4.55;;;0.90;;
19492;SDS011;9887;54.366;10.958;2022-10-16T13:07:34;10.73;;;1.10;;
19492;SDS011;9887;54.366;10.958;2022-10-16T13:10:21;5.43;;;1.20;;
19492;SDS011;9887;54.366;10.958;2022-10-16T13:13:06;5.43;;;1.40;;
19492;SDS011;9887;54.366;10.958;2022-10-16T13:18:35;4.78;;;1.52;;
19492;SDS011;9887;54.366;10.958;2022-10-16T13:21:16;4.10;;;0.98;;
19492;SDS011;9887;54.366;10.958;2022-10-16T13:23:54;14.30;;;1.88;;
19492;SDS011;9887;54.366;10.958;2022-10-16T13:26:31;5.72;;;0.90;;
19492;SDS011;9887;54.366;10.958;2022-10-16T13:29:06;7.97;;;1.63;;
19492;SDS011;9887;54.366;10.958;2022-10-16T13:31:36;7.38;;;1.20;;
19492;SDS011;9887;54.366;10.958;2022-10-16T13:34:05;7.90;;;1.13;;
19492;SDS011;9887;54.366;10.958;2022-10-16T13:36:45;13.45;;;1.20;;
19492;SDS011;9887;54.366;10.958;2022-10-16T13:39:22;9.02;;;1.10;;
19492;SDS011;9887;54.366;10.958;2022-10-16T13:41:58;5.95;;;1.17;;
19492;SDS011;9887;54.366;10.958;2022-10-16T13:44:35;6.38;;;1.35;;
19492;SDS011;9887;54.366;10.958;2022-10-16T13:47:10;8.13;;;1.20;;
19492;SDS011;9887;54.366;10.958;2022-10-16T13:49:44;12.77;;;1.80;;
19492;SDS011;9887;54.366;10.958;2022-10-16T13:52:16;6.22;;;1.60;;
19492;SDS011;9887;54.366;10.958;2022-10-16T13:54:47;5.45;;;1.00;;
19492;SDS011;9887;54.366;10.958;2022-10-16T13:57:15;8.25;;;1.33;;
19492;SDS011;9887;54.366;10.958;2022-10-16T13:59:53;5.07;;;0.80;;
19492;SDS011;9887;54.366;10.958;2022-10-16T14:02:22;7.35;;;1.85;;
19492;SDS011;9887;54.366;10.958;2022-10-16T14:04:55;7.70;;;1.17;;
19492;SDS011;9887;54.366;10.958;2022-10-16T14:07:25;8.07;;;1.55;;
19492;SDS011;9887;54.366;10.958;2022-10-16T14:09:56;8.88;;;1.20;;
19492;SDS011;9887;54.366;10.958;2022-10-16T14:12:28;5.43;;;1.20;;
19492;SDS011;9887;54.366;10.958;2022-10-16T14:14:57;11.55;;;1.42;;
19492;SDS011;9887;54.366;10.958;2022-10-16T14:17:27;5.43;;;1.00;;
19492;SDS011;9887;54.366;10.958;2022-10-16T14:19:57;6.88;;;1.17;;
19492;SDS011;9887;54.366;10.958;2022-10-16T14:22:32;6.47;;;1.13;;
19492;SDS011;9887;54.366;10.958;2022-10-16T14:25:15;6.53;;;1.30;;
19492;SDS011;9887;54.366;10.958;2022-10-16T14:28:01;5.05;;;1.25;;
19492;SDS011;9887;54.366;10.958;2022-10-16T14:30:31;7.03;;;1.42;;
19492;SDS011;9887;54.366;10.958;2022-10-16T14:33:02;5.22;;;1.65;;
19492;SDS011;9887;54.366;10.958;2022-10-16T14:35:31;7.18;;;1.02;;
19492;SDS011;9887;54.366;10.958;2022-10-16T14:38:01;7.53;;;1.17;;
19492;SDS011;9887;54.366;10.958;2022-10-16T14:40:32;8.27;;;1.60;;
19492;SDS011;9887;54.366;10.958;2022-10-16T14:43:01;6.10;;;1.00;;
19492;SDS011;9887;54.366;10.958;2022-10-16T14:45:32;8.52;;;1.30;;
19492;SDS011;9887;54.366;10.958;2022-10-16T14:48:02;6.05;;;0.95;;
19492;SDS011;9887;54.366;10.958;2022-10-16T14:50:33;6.45;;;1.20;;
19492;SDS011;9887;54.366;10.958;2022-10-16T14:53:01;9.70;;;1.30;;
19492;SDS011;9887;54.366;10.958;2022-10-16T14:55:29;5.90;;;1.05;;
19492;SDS011;9887;54.366;10.958;2022-10-16T14:57:58;5.85;;;1.00;;
19492;SDS011;9887;54.366;10.958;2022-10-16T15:00:26;4.72;;;0.98;;
19492;SDS011;9887;54.366;10.958;2022-10-16T15:02:54;4.05;;;1.23;;
19492;SDS011;9887;54.366;10.958;2022-10-16T15:05:23;4.70;;;1.20;;
19492;SDS011;9887;54.366;10.958;2022-10-16T15:07:52;4.03;;;1.02;;
19492;SDS011;9887;54.366;10.958;2022-10-16T15:10:21;5.90;;;1.00;;
19492;SDS011;9887;54.366;10.958;2022-10-16T15:12:50;5.47;;;1.00;;
19492;SDS011;9887;54.366;10.958;2022-10-16T15:15:25;7.97;;;1.90;;
19492;SDS011;9887;54.366;10.958;2022-10-16T15:18:01;5.95;;;1.00;;
19492;SDS011;9887;54.366;10.958;2022-10-16T15:20:31;6.40;;;1.17;;